»·PEaware :: N4657 KSNA-KSMO

N4657 :: KSNA-KSMO

FLIGHT INFORMATION

Flight Status: Arrived
Operator: Privately registered:
United States
More flights under this callsign
Pilot: Daniel P. (20187)
Aircraft: PILATUS PC-12 EAGLE
(PC12)
More flights by this aircraft type
Origin: KSNA John Wayne-Orange Co
United States
Destination: KSMO Santa Monica Mun
United States
More flights between these airports :: More routes between these airports
Route: +SLI V459 DARTS
File this flight plan on PilotEdge
Remarks: TEC Route CSTP 10
Altitude:
(Current/Filed)
80ft
Speed:
(Current/Filed)
200kts
Departed: 07-Oct-18 09:49 AM
Arrived: 07-Oct-18 10:15 AM
Distance/Time
Traveled:
35nm/0:26
Distance/Time
To Go:
Arrived

Flight Plot

Page will automatically refresh every two minutes.


Map Options




Map Legend


Flown Route
Filed Route
Departure Airport
Arrival Airport
Navaid (VOR, NDB)
Fix

Horizontal Profiles

Position Reports

Time Latitude Longitude Heading Altitude Ground
Speed
07-Oct-18 09:20 33.673974 -117.872288 166 60ft 0kts
07-Oct-18 09:21 33.673974 -117.872288 166 60ft 0kts
07-Oct-18 09:22 33.673974 -117.872288 166 60ft 0kts
07-Oct-18 09:23 33.673974 -117.872288 166 60ft 0kts
07-Oct-18 09:24 33.673974 -117.872288 166 60ft 0kts
07-Oct-18 09:25 33.673974 -117.872288 166 60ft 0kts
07-Oct-18 09:26 33.673974 -117.872288 166 60ft 0kts
07-Oct-18 09:27 33.673974 -117.872288 166 60ft 0kts
07-Oct-18 09:28 33.673974 -117.872288 166 60ft 0kts
07-Oct-18 09:29 33.673974 -117.872288 166 60ft 0kts
07-Oct-18 09:30 33.673974 -117.872288 166 60ft 0kts
07-Oct-18 09:31 33.673974 -117.872288 166 60ft 0kts
07-Oct-18 09:32 33.673974 -117.872288 166 60ft 0kts
07-Oct-18 09:33 33.673974 -117.872288 166 60ft 0kts
07-Oct-18 09:34 33.673974 -117.872288 166 60ft 0kts
07-Oct-18 09:35 33.673974 -117.872288 166 60ft 0kts
07-Oct-18 09:36 33.673974 -117.872288 166 60ft 0kts
07-Oct-18 09:37 33.673974 -117.872288 166 60ft 0kts
07-Oct-18 09:38 33.673974 -117.872288 166 60ft 0kts
07-Oct-18 09:39 33.673974 -117.872288 166 60ft 0kts
07-Oct-18 09:40 33.673974 -117.872288 166 60ft 0kts
07-Oct-18 09:41 33.673974 -117.872288 166 60ft 0kts
07-Oct-18 09:42 33.673974 -117.872288 166 60ft 0kts
07-Oct-18 09:43 33.673974 -117.872288 166 60ft 0kts
07-Oct-18 09:44 33.673834 -117.872038 109 60ft 6kts
07-Oct-18 09:45 33.675435 -117.870489 30 60ft 9kts
07-Oct-18 09:46 33.678424 -117.868561 24 60ft 13kts
07-Oct-18 09:47 33.681138 -117.867024 45 60ft 10kts
07-Oct-18 09:48 33.681213 -117.866456 114 60ft 0kts
07-Oct-18 09:49 33.681213 -117.866456 114 60ft 0kts
07-Oct-18 09:50 33.681213 -117.866456 114 60ft 0kts
07-Oct-18 09:51 33.676992 -117.868009 207 60ft 104kts
07-Oct-18 09:52 33.648239 -117.899477 231 2042ft 183kts
07-Oct-18 09:53 33.613604 -117.952440 231 3655ft 212kts
07-Oct-18 09:54 33.577217 -118.006841 231 5311ft 211kts
07-Oct-18 09:55 33.539931 -118.061038 231 7090ft 215kts
07-Oct-18 09:56 33.500155 -118.117507 232 8007ft 234kts
07-Oct-18 09:57 33.469028 -118.179199 261 8018ft 201kts
07-Oct-18 09:58 33.504436 -118.200449 42 8024ft 227kts
07-Oct-18 09:59 33.554210 -118.156736 22 8010ft 227kts
07-Oct-18 10:00 33.612155 -118.129141 18 8003ft 224kts
07-Oct-18 10:01 33.670133 -118.103818 18 8003ft 223kts
07-Oct-18 10:02 33.727678 -118.078993 18 8002ft 223kts
07-Oct-18 10:03 33.785896 -118.059006 344 8014ft 221kts
07-Oct-18 10:04 33.841753 -118.088525 334 8002ft 222kts
07-Oct-18 10:05 33.896643 -118.120047 334 8002ft 221kts
07-Oct-18 10:06 33.951430 -118.151540 333 7950ft 212kts
07-Oct-18 10:07 33.999085 -118.178971 332 7077ft 178kts
07-Oct-18 10:08 34.041614 -118.203554 332 6170ft 167kts
07-Oct-18 10:09 34.081889 -118.226863 333 5271ft 161kts
07-Oct-18 10:10 34.112253 -118.258704 256 4412ft 163kts
07-Oct-18 10:11 34.086169 -118.300546 231 3985ft 150kts
07-Oct-18 10:12 34.061771 -118.336381 233 3680ft 130kts
07-Oct-18 10:13 34.054504 -118.374923 261 2804ft 106kts
07-Oct-18 10:14 34.044478 -118.407613 255 1856ft 98kts
07-Oct-18 10:15 34.032418 -118.431835 223 721ft 82kts
07-Oct-18 10:16 34.015329 -118.451849 223 136ft 52kts
07-Oct-18 10:17 34.012892 -118.453999 134 127ft 0kts
07-Oct-18 10:18 34.012892 -118.453999 134 127ft 0kts
07-Oct-18 10:19 34.012892 -118.453999 134 127ft 0kts
07-Oct-18 10:20 34.012892 -118.453999 134 127ft 0kts
07-Oct-18 10:21 34.012892 -118.453999 134 127ft 0kts
07-Oct-18 10:22 34.012892 -118.453999 134 127ft 0kts
07-Oct-18 10:23 34.012742 -118.453682 99 127ft 9kts
07-Oct-18 10:24 34.013823 -118.452066 129 133ft 2kts
07-Oct-18 10:25 34.013851 -118.452102 135 133ft 0kts
07-Oct-18 10:26 34.013851 -118.452102 135 133ft 0kts

Navigation Log

Ident Type
Flight plan parsing failed, navigation log unavailable